createdAt,value
2019-02-16T00:01:47.666Z,14.73
2019-02-16T00:04:13.930Z,14.90
2019-02-16T00:06:40.132Z,15.24
2019-02-16T00:09:06.290Z,15.35
2019-02-16T00:11:32.448Z,14.76
2019-02-16T00:13:58.641Z,15.06
2019-02-16T00:16:24.887Z,15.18
2019-02-16T00:18:51.040Z,15.56
2019-02-16T00:21:17.341Z,15.44
2019-02-16T00:23:43.586Z,15.73
2019-02-16T00:26:09.748Z,16.15
2019-02-16T00:28:35.955Z,15.62
2019-02-16T00:31:02.238Z,15.80
2019-02-16T00:33:28.396Z,14.49
2019-02-16T00:35:54.595Z,14.81
2019-02-16T00:38:20.751Z,14.58
2019-02-16T00:40:46.899Z,15.00
2019-02-16T00:43:13.085Z,15.31
2019-02-16T00:45:39.231Z,15.28
2019-02-16T00:48:05.909Z,15.13
2019-02-16T00:50:32.205Z,15.56
2019-02-16T00:52:58.365Z,14.85
2019-02-16T00:55:24.519Z,14.93
2019-02-16T00:57:50.730Z,14.73
2019-02-16T01:00:16.881Z,15.02
2019-02-16T01:02:43.040Z,15.26
2019-02-16T01:05:09.236Z,14.82
2019-02-16T01:07:37.218Z,15.10
2019-02-16T01:10:06.177Z,15.24
2019-02-16T01:12:32.865Z,15.52
2019-02-16T01:14:59.033Z,15.64
2019-02-16T01:17:25.186Z,14.61
2019-02-16T01:19:51.378Z,13.90
2019-02-16T01:22:17.541Z,14.34
2019-02-16T01:24:43.709Z,15.16
2019-02-16T01:27:10.000Z,15.19
2019-02-16T01:29:36.260Z,14.15
2019-02-16T01:32:02.415Z,14.08
2019-02-16T01:34:28.620Z,14.80
2019-02-16T01:36:54.770Z,14.47
2019-02-16T01:39:20.926Z,14.14
2019-02-16T01:41:47.898Z,14.10
2019-02-16T01:44:14.276Z,13.51
2019-02-16T01:46:40.436Z,13.19
2019-02-16T01:49:06.683Z,13.81
2019-02-16T01:51:32.851Z,13.57
2019-02-16T01:53:59.008Z,13.24
2019-02-16T01:56:25.200Z,13.26
2019-02-16T01:58:51.379Z,12.81
2019-02-16T02:01:17.632Z,13.01
2019-02-16T02:03:43.840Z,13.28
2019-02-16T02:06:09.990Z,13.53
2019-02-16T02:08:36.235Z,14.03
2019-02-16T02:11:03.329Z,12.49
2019-02-16T02:13:29.533Z,13.22
2019-02-16T02:15:55.788Z,12.74
2019-02-16T02:18:22.096Z,13.23
2019-02-16T02:20:48.258Z,12.77
2019-02-16T02:23:14.416Z,13.60
2019-02-16T02:25:40.712Z,13.98
2019-02-16T02:28:06.869Z,13.68
2019-02-16T02:30:33.029Z,13.22
2019-02-16T02:32:59.223Z,12.94
2019-02-16T02:35:25.374Z,13.27
2019-02-16T02:37:51.629Z,13.49
2019-02-16T02:40:17.828Z,13.79
2019-02-16T02:42:43.979Z,13.68
2019-02-16T02:45:10.245Z,13.96
2019-02-16T02:47:36.423Z,14.17
2019-02-16T02:50:02.884Z,13.88
2019-02-16T02:52:29.038Z,14.28
2019-02-16T02:54:55.227Z,14.09
2019-02-16T02:57:21.381Z,14.49
2019-02-16T02:59:47.536Z,13.84
2019-02-16T03:02:13.728Z,12.69
2019-02-16T03:04:39.889Z,13.94
2019-02-16T03:07:06.043Z,14.31
2019-02-16T03:09:32.332Z,14.42
2019-02-16T03:11:58.497Z,13.79
2019-02-16T03:14:24.664Z,14.08
2019-02-16T03:16:50.858Z,14.19
2019-02-16T03:19:17.018Z,14.72
2019-02-16T03:21:43.168Z,15.05
2019-02-16T03:24:09.394Z,14.90
2019-02-16T03:26:42.215Z,14.56
2019-02-16T03:29:12.012Z,15.09
2019-02-16T03:31:53.754Z,15.25
2019-02-16T03:34:26.908Z,15.08
2019-02-16T03:37:14.236Z,15.37
2019-02-16T03:39:42.541Z,14.29
2019-02-16T03:42:08.721Z,14.20
2019-02-16T03:44:34.880Z,14.58
2019-02-16T03:47:01.070Z,15.30
2019-02-16T03:49:27.241Z,15.23
2019-02-16T03:51:53.504Z,14.68
2019-02-16T03:54:19.797Z,15.18
2019-02-16T03:56:46.421Z,14.54
2019-02-16T03:59:12.573Z,14.57
2019-02-16T04:01:38.787Z,14.53
2019-02-16T04:04:04.964Z,14.91
2019-02-16T04:06:31.135Z,14.87
2019-02-16T04:08:57.309Z,14.82
2019-02-16T04:11:23.565Z,15.06
2019-02-16T04:13:50.100Z,15.07
2019-02-16T04:16:16.297Z,14.54
2019-02-16T04:18:42.455Z,14.53
2019-02-16T04:21:08.619Z,14.69
2019-02-16T04:23:34.810Z,14.41
2019-02-16T04:26:02.882Z,14.53
2019-02-16T04:28:29.051Z,14.50
2019-02-16T04:30:55.237Z,13.15
2019-02-16T04:33:21.501Z,14.22
2019-02-16T04:35:47.664Z,14.27
2019-02-16T04:38:13.851Z,13.57
2019-02-16T04:40:40.013Z,14.14
2019-02-16T04:43:06.180Z,14.20
2019-02-16T04:45:32.478Z,14.38
2019-02-16T04:47:58.667Z,14.12
2019-02-16T04:50:24.926Z,14.64
2019-02-16T04:52:51.269Z,14.30
2019-02-16T04:55:17.532Z,14.35
2019-02-16T04:57:43.688Z,14.13
2019-02-16T05:00:09.878Z,14.72
2019-02-16T05:02:36.053Z,14.60
2019-02-16T05:05:02.376Z,14.63
2019-02-16T05:07:28.577Z,14.57
2019-02-16T05:09:54.869Z,14.88
2019-02-16T05:12:21.298Z,14.31
2019-02-16T05:14:47.474Z,14.18
2019-02-16T05:17:13.744Z,14.29
2019-02-16T05:19:40.106Z,14.87
2019-02-16T05:22:06.358Z,14.88
2019-02-16T05:24:32.683Z,15.22
2019-02-16T05:26:58.834Z,15.18
2019-02-16T05:29:25.064Z,14.55
2019-02-16T05:31:51.347Z,15.08
2019-02-16T05:34:17.507Z,14.96
2019-02-16T05:36:43.696Z,14.55
2019-02-16T05:39:09.860Z,14.80
2019-02-16T05:41:36.115Z,14.63
2019-02-16T05:44:02.409Z,15.36
2019-02-16T05:46:28.566Z,15.42
2019-02-16T05:48:54.735Z,15.73
2019-02-16T05:51:21.068Z,15.40
2019-02-16T05:53:48.314Z,15.28
2019-02-16T05:56:14.578Z,14.40
2019-02-16T05:58:40.789Z,14.38
2019-02-16T06:01:06.953Z,14.97
2019-02-16T06:03:33.219Z,14.95
2019-02-16T06:05:59.404Z,14.67
2019-02-16T06:08:25.581Z,15.32
2019-02-16T06:10:51.822Z,15.38
2019-02-16T06:13:18.038Z,15.17
2019-02-16T06:15:44.308Z,15.31
2019-02-16T06:18:10.471Z,15.58
2019-02-16T06:20:36.663Z,14.62
2019-02-16T06:23:04.582Z,15.73
2019-02-16T06:25:31.020Z,15.28
2019-02-16T06:27:57.224Z,15.27
2019-02-16T06:30:25.338Z,15.84
2019-02-16T06:32:51.496Z,16.06
2019-02-16T06:35:36.013Z,16.25
2019-02-16T06:38:02.277Z,16.14
2019-02-16T06:40:28.542Z,16.69
2019-02-16T06:42:54.750Z,16.80
2019-02-16T06:45:20.914Z,16.41
2019-02-16T06:47:47.186Z,16.41
2019-02-16T06:50:13.491Z,16.27
2019-02-16T06:52:39.661Z,16.12
2019-02-16T06:55:05.879Z,16.69
2019-02-16T06:57:32.182Z,15.67
2019-02-16T06:59:58.353Z,14.61
2019-02-16T07:02:25.910Z,15.08
2019-02-16T07:04:52.105Z,15.72
2019-02-16T07:07:18.375Z,16.04
2019-02-16T07:09:44.631Z,15.98
2019-02-16T07:12:10.925Z,15.88
2019-02-16T07:14:37.397Z,17.01
2019-02-16T07:17:23.395Z,15.98
2019-02-16T07:19:51.076Z,16.60
2019-02-16T07:22:17.239Z,16.92
2019-02-16T07:24:43.433Z,17.53
2019-02-16T07:27:09.607Z,16.57
2019-02-16T07:29:35.775Z,16.51
2019-02-16T07:32:02.063Z,17.32
2019-02-16T07:34:28.239Z,16.88
2019-02-16T07:36:54.513Z,16.83
2019-02-16T07:39:20.714Z,16.34
2019-02-16T07:41:46.873Z,16.02
2019-02-16T07:44:32.886Z,17.20
2019-02-16T07:47:00.899Z,16.99
2019-02-16T07:49:28.978Z,17.30
2019-02-16T07:51:59.909Z,16.78
2019-02-16T07:54:44.645Z,16.61
2019-02-16T07:57:30.663Z,16.20
2019-02-16T07:59:58.732Z,16.12
2019-02-16T08:02:26.859Z,16.89
2019-02-16T08:04:55.135Z,17.06
2019-02-16T08:07:32.154Z,16.66
2019-02-16T08:10:06.057Z,17.18
2019-02-16T08:12:36.911Z,18.63
2019-02-16T08:15:09.198Z,17.40
2019-02-16T08:17:40.106Z,15.83
2019-02-16T08:20:08.188Z,17.36
2019-02-16T08:22:36.280Z,16.72
2019-02-16T08:25:21.818Z,15.78
2019-02-16T08:27:55.643Z,16.83
2019-02-16T08:30:26.502Z,16.85
2019-02-16T08:33:00.399Z,16.90
2019-02-16T08:35:44.909Z,17.55
2019-02-16T08:38:27.945Z,17.34
2019-02-16T08:41:07.786Z,18.39
2019-02-16T08:43:38.651Z,18.19
2019-02-16T08:46:12.760Z,18.64
2019-02-16T08:48:43.547Z,18.14
2019-02-16T08:51:20.298Z,17.69
2019-02-16T08:53:50.016Z,17.75
2019-02-16T08:56:18.345Z,18.46
2019-02-16T08:58:49.014Z,17.85
2019-02-16T09:01:17.122Z,17.29
2019-02-16T09:03:45.182Z,17.25
2019-02-16T09:06:15.813Z,18.07
2019-02-16T09:08:49.637Z,16.93
2019-02-16T09:11:34.392Z,17.11
2019-02-16T09:14:18.744Z,16.95
2019-02-16T09:16:46.799Z,17.15
2019-02-16T09:19:26.877Z,18.18
2019-02-16T09:21:57.729Z,17.84
2019-02-16T09:24:28.637Z,18.90
2019-02-16T09:27:05.444Z,19.34
2019-02-16T09:29:39.460Z,18.66
2019-02-16T09:32:10.191Z,18.48
2019-02-16T09:34:56.444Z,19.23
2019-02-16T09:37:30.315Z,18.90
2019-02-16T09:40:04.299Z,18.01
2019-02-16T09:42:49.033Z,18.30
2019-02-16T09:45:33.690Z,19.22
2019-02-16T09:48:18.530Z,19.81
2019-02-16T09:50:46.642Z,18.82
2019-02-16T09:53:23.729Z,20.11
2019-02-16T09:55:57.490Z,18.16
2019-02-16T09:58:25.550Z,17.36
2019-02-16T10:00:59.554Z,17.25
2019-02-16T10:03:30.179Z,18.35
2019-02-16T10:06:01.167Z,18.82
2019-02-16T10:08:35.060Z,18.33
2019-02-16T10:11:19.671Z,17.18
2019-02-16T10:13:47.782Z,18.58
2019-02-16T10:16:34.404Z,19.84
2019-02-16T10:19:14.210Z,19.60
2019-02-16T10:21:45.099Z,19.68
2019-02-16T10:24:18.939Z,19.26
2019-02-16T10:26:49.515Z,20.35
2019-02-16T10:29:17.615Z,21.63
2019-02-16T10:31:45.715Z,22.22
2019-02-16T10:34:30.130Z,20.28
2019-02-16T10:37:00.884Z,19.89
2019-02-16T10:39:34.772Z,19.46
2019-02-16T10:42:02.868Z,19.80
2019-02-16T10:44:33.605Z,21.26
2019-02-16T10:47:07.571Z,20.44
2019-02-16T10:49:35.627Z,20.91
2019-02-16T10:52:20.462Z,18.61
2019-02-16T10:54:48.535Z,17.59
2019-02-16T10:57:23.722Z,18.16
2019-02-16T11:00:08.421Z,19.07
2019-02-16T11:02:52.841Z,18.48
2019-02-16T11:05:37.378Z,19.36
2019-02-16T11:08:07.947Z,21.09
2019-02-16T11:10:36.009Z,20.63
2019-02-16T11:13:16.467Z,19.02
2019-02-16T11:16:01.135Z,19.35
2019-02-16T11:18:44.089Z,18.56
2019-02-16T11:21:12.487Z,18.62
2019-02-16T11:23:45.367Z,17.83
2019-02-16T11:26:19.031Z,18.56
2019-02-16T11:28:56.397Z,18.19
2019-02-16T11:31:36.387Z,18.53
2019-02-16T11:34:22.669Z,19.08
2019-02-16T11:37:05.620Z,20.44
2019-02-16T11:39:36.397Z,19.94
2019-02-16T11:42:04.460Z,20.17
2019-02-16T11:44:35.117Z,20.91
2019-02-16T11:47:05.799Z,20.99
2019-02-16T11:49:33.869Z,19.52
2019-02-16T11:52:16.987Z,19.61
2019-02-16T11:54:47.583Z,20.21
2019-02-16T11:57:24.335Z,21.36
2019-02-16T12:00:08.675Z,20.39
2019-02-16T12:02:45.600Z,20.72
2019-02-16T12:05:30.326Z,19.81
2019-02-16T12:08:00.927Z,19.03
2019-02-16T12:10:31.653Z,20.45
2019-02-16T12:13:05.341Z,22.97
2019-02-16T12:15:42.122Z,23.72
2019-02-16T12:18:28.011Z,23.69
2019-02-16T12:21:01.637Z,23.21
2019-02-16T12:23:46.575Z,23.32
2019-02-16T12:26:26.355Z,22.85
2019-02-16T12:29:03.239Z,21.00
2019-02-16T12:31:43.564Z,20.92
2019-02-16T12:34:14.230Z,21.73
2019-02-16T12:36:42.303Z,22.44
2019-02-16T12:39:25.227Z,19.72
2019-02-16T12:41:55.806Z,20.15
2019-02-16T12:44:29.511Z,21.65
2019-02-16T12:47:03.184Z,22.53
2019-02-16T12:49:31.247Z,21.70
2019-02-16T12:52:01.927Z,22.55
2019-02-16T12:54:45.065Z,21.82
2019-02-16T12:57:13.159Z,20.51
2019-02-16T12:59:44.218Z,21.56
2019-02-16T13:02:17.864Z,21.50
2019-02-16T13:04:48.447Z,19.39
2019-02-16T13:07:16.575Z,17.30
2019-02-16T13:09:50.199Z,17.90
2019-02-16T13:12:20.761Z,18.41
2019-02-16T13:14:54.468Z,19.66
2019-02-16T13:17:22.753Z,20.55
2019-02-16T13:19:50.836Z,21.03
2019-02-16T13:22:24.891Z,19.27
2019-02-16T13:24:52.952Z,20.50
2019-02-16T13:27:30.326Z,21.36
2019-02-16T13:29:58.432Z,19.95
2019-02-16T13:32:26.501Z,18.74
2019-02-16T13:34:57.670Z,18.72
2019-02-16T13:37:25.745Z,18.94
2019-02-16T13:40:02.688Z,19.29
2019-02-16T13:42:33.285Z,18.68
2019-02-16T13:45:01.348Z,18.75
2019-02-16T13:47:38.405Z,18.57
2019-02-16T13:50:09.484Z,18.58
2019-02-16T13:52:54.140Z,18.21
2019-02-16T13:55:38.634Z,19.23
2019-02-16T13:58:18.485Z,19.72
2019-02-16T14:00:46.550Z,20.14
2019-02-16T14:03:20.548Z,20.84
2019-02-16T14:05:48.604Z,21.09
2019-02-16T14:08:23.376Z,21.38
2019-02-16T14:10:51.455Z,21.00
2019-02-16T14:13:37.406Z,21.10
2019-02-16T14:16:11.036Z,21.66
2019-02-16T14:18:37.186Z,21.83
2019-02-16T14:21:03.440Z,22.28
2019-02-16T14:23:29.750Z,22.15
2019-02-16T14:25:55.997Z,22.45
2019-02-16T14:28:22.265Z,21.63
2019-02-16T14:30:48.731Z,21.35
2019-02-16T14:33:14.896Z,20.23
2019-02-16T14:35:42.086Z,20.91
2019-02-16T14:38:10.163Z,20.39
2019-02-16T14:40:36.335Z,20.12
2019-02-16T14:43:02.570Z,20.04
2019-02-16T14:45:30.441Z,20.20
2019-02-16T14:47:56.624Z,20.73
2019-02-16T14:50:25.350Z,20.39
2019-02-16T14:52:51.514Z,20.16
2019-02-16T14:55:20.352Z,20.17
2019-02-16T14:57:46.600Z,20.61
2019-02-16T15:00:12.835Z,20.45
2019-02-16T15:02:39.003Z,19.53
2019-02-16T15:05:07.137Z,19.76
2019-02-16T15:07:33.313Z,19.58
2019-02-16T15:09:59.504Z,19.84
2019-02-16T15:12:26.046Z,19.62
2019-02-16T15:14:52.200Z,19.54
2019-02-16T15:17:18.404Z,19.61
2019-02-16T15:19:44.604Z,19.41
2019-02-16T15:22:10.865Z,19.41
2019-02-16T15:24:37.034Z,19.13
2019-02-16T15:27:03.341Z,18.54
2019-02-16T15:29:29.512Z,18.01
2019-02-16T15:31:55.672Z,17.44
2019-02-16T15:34:21.974Z,17.73
2019-02-16T15:36:48.131Z,17.69
2019-02-16T15:39:14.287Z,17.43
2019-02-16T15:41:40.496Z,17.43
2019-02-16T15:44:06.754Z,16.95
2019-02-16T15:46:32.920Z,16.82
2019-02-16T15:49:01.873Z,16.78
2019-02-16T15:51:28.033Z,16.55
2019-02-16T15:53:54.183Z,16.57
2019-02-16T15:56:21.678Z,16.58
2019-02-16T15:58:48.313Z,16.32
2019-02-16T16:01:14.510Z,16.30
2019-02-16T16:03:41.186Z,16.19
2019-02-16T16:06:07.450Z,16.00
2019-02-16T16:08:44.607Z,15.88
2019-02-16T16:11:15.221Z,15.33
2019-02-16T16:13:54.995Z,15.57
2019-02-16T16:16:39.656Z,15.55
2019-02-16T16:19:11.303Z,15.47
2019-02-16T16:21:41.881Z,15.30
2019-02-16T16:24:12.511Z,15.27
2019-02-16T16:26:52.417Z,15.19
2019-02-16T16:29:23.112Z,15.11
2019-02-16T16:31:53.715Z,15.09
2019-02-16T16:34:38.132Z,14.99
2019-02-16T16:37:06.175Z,14.97
2019-02-16T16:39:34.237Z,14.83
2019-02-16T16:42:02.410Z,14.74
2019-02-16T16:44:36.334Z,14.45
2019-02-16T16:47:04.438Z,14.40
2019-02-16T16:49:38.109Z,14.36
2019-02-16T16:52:06.158Z,14.27
2019-02-16T16:54:34.760Z,14.08
2019-02-16T16:57:19.320Z,13.84
2019-02-16T16:59:50.726Z,13.87
2019-02-16T17:02:21.560Z,14.07
2019-02-16T17:05:01.407Z,14.07
2019-02-16T17:07:32.010Z,13.87
2019-02-16T17:10:18.135Z,13.61
2019-02-16T17:12:51.997Z,13.74
2019-02-16T17:15:22.854Z,13.72
2019-02-16T17:17:56.447Z,14.00
2019-02-16T17:20:33.353Z,13.84
2019-02-16T17:23:16.510Z,13.88
2019-02-16T17:25:44.552Z,13.84
2019-02-16T17:28:15.166Z,13.99
2019-02-16T17:30:46.005Z,14.08
2019-02-16T17:33:19.669Z,13.97
2019-02-16T17:35:52.552Z,13.68
2019-02-16T17:38:32.306Z,13.72
2019-02-16T17:41:02.910Z,13.82
2019-02-16T17:43:31.070Z,13.81
2019-02-16T17:45:59.169Z,13.85
2019-02-16T17:48:36.313Z,13.83
2019-02-16T17:51:10.353Z,13.38
2019-02-16T17:53:38.479Z,13.36
2019-02-16T17:56:09.328Z,13.65
2019-02-16T17:58:37.429Z,14.07
2019-02-16T18:01:14.389Z,14.34
2019-02-16T18:03:58.781Z,14.13
2019-02-16T18:06:26.842Z,14.11
2019-02-16T18:08:57.418Z,13.91
2019-02-16T18:11:34.169Z,14.56
2019-02-16T18:14:04.897Z,14.68
2019-02-16T18:16:38.750Z,14.62
2019-02-16T18:19:09.330Z,14.83
2019-02-16T18:21:43.274Z,14.80
2019-02-16T18:24:14.202Z,14.74
2019-02-16T18:26:56.056Z,15.18
2019-02-16T18:29:18.280Z,15.26
2019-02-16T18:31:48.888Z,14.87
2019-02-16T18:34:32.315Z,15.36
2019-02-16T18:37:09.222Z,15.67
2019-02-16T18:39:37.477Z,15.38
2019-02-16T18:42:05.578Z,15.52
2019-02-16T18:44:39.733Z,15.56
2019-02-16T18:47:07.787Z,14.98
2019-02-16T18:49:38.604Z,14.94
2019-02-16T18:52:06.694Z,14.21
2019-02-16T18:54:43.854Z,14.78
2019-02-16T18:57:14.677Z,14.14
2019-02-16T18:59:51.528Z,14.91
2019-02-16T19:02:25.249Z,14.23
2019-02-16T19:05:05.019Z,14.37
2019-02-16T19:07:38.763Z,14.64
2019-02-16T19:10:22.666Z,14.23
2019-02-16T19:12:50.761Z,14.09
2019-02-16T19:15:21.379Z,14.42
2019-02-16T19:17:49.447Z,14.76
2019-02-16T19:20:17.928Z,13.85
2019-02-16T19:22:51.851Z,13.39
2019-02-16T19:25:19.963Z,14.24
2019-02-16T19:27:48.126Z,13.68
2019-02-16T19:30:16.193Z,13.63
2019-02-16T19:32:50.096Z,13.33
2019-02-16T19:35:36.238Z,12.67
2019-02-16T19:38:04.344Z,12.85
2019-02-16T19:40:32.409Z,12.96
2019-02-16T19:43:06.483Z,13.21
2019-02-16T19:45:34.543Z,12.87
2019-02-16T19:48:02.608Z,13.02
2019-02-16T19:50:30.704Z,12.82
2019-02-16T19:53:04.377Z,13.01
2019-02-16T19:55:35.806Z,12.59
2019-02-16T19:58:12.909Z,13.00
2019-02-16T20:00:41.009Z,13.12
2019-02-16T20:03:20.693Z,12.21
2019-02-16T20:05:56.046Z,12.02
2019-02-16T20:08:24.301Z,12.75
2019-02-16T20:10:57.169Z,12.39
2019-02-16T20:13:42.100Z,12.39
2019-02-16T20:16:16.308Z,13.11
2019-02-16T20:18:47.016Z,12.75
2019-02-16T20:21:30.141Z,12.84
2019-02-16T20:24:09.868Z,12.59
2019-02-16T20:26:50.009Z,12.83
2019-02-16T20:29:20.580Z,12.81
2019-02-16T20:31:48.641Z,13.03
2019-02-16T20:34:25.794Z,13.14
2019-02-16T20:36:56.633Z,13.34
2019-02-16T20:39:30.519Z,14.17
2019-02-16T20:41:58.573Z,13.31
2019-02-16T20:44:26.635Z,13.59
2019-02-16T20:47:00.603Z,13.75
2019-02-16T20:49:37.519Z,13.13
2019-02-16T20:52:08.153Z,13.39
2019-02-16T20:54:45.239Z,13.89
2019-02-16T21:00:01.884Z,13.56
2019-02-16T21:02:35.881Z,14.47
2019-02-16T21:05:07.503Z,13.97
2019-02-16T21:07:41.212Z,12.70
2019-02-16T21:10:09.282Z,13.08
2019-02-16T21:12:40.076Z,12.43
2019-02-16T21:15:24.896Z,12.44
2019-02-16T21:17:58.633Z,13.58
2019-02-16T21:20:29.417Z,14.13
2019-02-16T21:23:00.528Z,14.29
2019-02-16T21:25:34.675Z,14.37
2019-02-16T21:28:17.503Z,14.68
2019-02-16T21:30:45.604Z,14.02
2019-02-16T21:33:16.484Z,14.35
2019-02-16T21:35:50.483Z,14.65
2019-02-16T21:38:21.064Z,14.40
2019-02-16T21:40:51.890Z,14.17
2019-02-16T21:43:22.915Z,13.96
2019-02-16T21:46:08.868Z,13.78
2019-02-16T21:48:51.741Z,13.61
2019-02-16T21:51:32.085Z,13.57
2019-02-16T21:54:02.900Z,13.90
2019-02-16T21:56:30.978Z,13.87
2019-02-16T21:59:18.965Z,13.80
2019-02-16T22:01:44.093Z,13.66
2019-02-16T22:04:16.245Z,13.63
2019-02-16T22:06:56.564Z,13.51
2019-02-16T22:09:30.309Z,13.59
2019-02-16T22:12:04.089Z,13.66
2019-02-16T22:14:30.254Z,13.61
2019-02-16T22:16:56.439Z,13.93
2019-02-16T22:19:22.744Z,13.63
2019-02-16T22:21:50.421Z,13.53
2019-02-16T22:24:16.638Z,13.79
2019-02-16T22:26:42.889Z,14.04
2019-02-16T22:29:09.072Z,14.35
2019-02-16T22:31:35.381Z,14.17
2019-02-16T22:34:01.532Z,14.13
2019-02-16T22:36:27.675Z,13.49
2019-02-16T22:38:53.865Z,13.97
2019-02-16T22:41:20.027Z,13.96
2019-02-16T22:43:46.187Z,13.87
2019-02-16T22:46:12.373Z,13.77
2019-02-16T22:48:38.576Z,13.48
2019-02-16T22:51:04.728Z,13.36
2019-02-16T22:53:30.916Z,13.48
2019-02-16T22:55:57.069Z,13.50
2019-02-16T22:58:28.731Z,13.32
2019-02-16T23:00:52.223Z,13.19
2019-02-16T23:03:18.481Z,13.02
2019-02-16T23:05:44.637Z,13.11
2019-02-16T23:08:11.142Z,12.96
2019-02-16T23:10:37.301Z,12.91
2019-02-16T23:13:04.266Z,12.90
2019-02-16T23:15:30.448Z,12.91
2019-02-16T23:17:56.603Z,12.90
2019-02-16T23:20:22.768Z,12.78
2019-02-16T23:22:48.993Z,12.78
2019-02-16T23:25:15.149Z,12.72
2019-02-16T23:27:41.303Z,12.68
2019-02-16T23:30:09.586Z,12.74
2019-02-16T23:32:35.754Z,12.60
2019-02-16T23:35:02.110Z,12.45
2019-02-16T23:37:28.304Z,12.47
2019-02-16T23:39:54.463Z,12.46
2019-02-16T23:42:20.621Z,12.46
2019-02-16T23:44:46.926Z,12.22
2019-02-16T23:47:13.085Z,12.40
2019-02-16T23:49:39.236Z,12.33
2019-02-16T23:52:05.425Z,12.11
2019-02-16T23:54:31.572Z,11.95
2019-02-16T23:56:57.739Z,11.84
2019-02-16T23:59:23.931Z,11.82
